sensor_id;sensor_type;location;lat;lon;timestamp;pressure;altitude;pressure_sealevel;temperature;humidity
44751;BME280;30477;48.224;11.470;2023-05-20T00:01:32;96064.06;;;12.55;71.93
44751;BME280;30477;48.224;11.470;2023-05-20T00:03:57;96054.94;;;12.51;71.97
44751;BME280;30477;48.224;11.470;2023-05-20T00:06:22;96051.41;;;12.52;71.77
44751;BME280;30477;48.224;11.470;2023-05-20T00:08:48;96044.56;;;12.51;72.12
44751;BME280;30477;48.224;11.470;2023-05-20T00:11:13;96044.38;;;12.45;72.32
44751;BME280;30477;48.224;11.470;2023-05-20T00:13:38;96041.56;;;12.38;72.40
44751;BME280;30477;48.224;11.470;2023-05-20T00:16:04;96048.84;;;12.34;72.73
44751;BME280;30477;48.224;11.470;2023-05-20T00:18:30;96043.16;;;12.31;72.92
44751;BME280;30477;48.224;11.470;2023-05-20T00:20:56;96055.00;;;12.33;72.93
44751;BME280;30477;48.224;11.470;2023-05-20T00:23:21;96053.22;;;12.34;73.04
44751;BME280;30477;48.224;11.470;2023-05-20T00:25:47;96054.88;;;12.35;72.91
44751;BME280;30477;48.224;11.470;2023-05-20T00:28:12;96048.84;;;12.34;72.97
44751;BME280;30477;48.224;11.470;2023-05-20T00:30:41;96049.28;;;12.30;73.09
44751;BME280;30477;48.224;11.470;2023-05-20T00:33:07;96045.09;;;12.29;73.06
44751;BME280;30477;48.224;11.470;2023-05-20T00:35:32;96043.44;;;12.28;73.17
44751;BME280;30477;48.224;11.470;2023-05-20T00:37:58;96042.09;;;12.24;73.49
44751;BME280;30477;48.224;11.470;2023-05-20T00:40:23;96039.16;;;12.18;73.62
44751;BME280;30477;48.224;11.470;2023-05-20T00:42:49;96038.84;;;12.22;73.86
44751;BME280;30477;48.224;11.470;2023-05-20T00:45:14;96045.38;;;12.26;73.85
44751;BME280;30477;48.224;11.470;2023-05-20T00:47:41;96048.63;;;12.28;73.70
44751;BME280;30477;48.224;11.470;2023-05-20T00:50:08;96045.09;;;12.29;73.47
44751;BME280;30477;48.224;11.470;2023-05-20T00:52:35;96046.84;;;12.28;73.72
44751;BME280;30477;48.224;11.470;2023-05-20T00:55:01;96054.63;;;12.28;73.67
44751;BME280;30477;48.224;11.470;2023-05-20T00:57:27;96045.38;;;12.26;73.68
44751;BME280;30477;48.224;11.470;2023-05-20T00:59:53;96044.88;;;12.22;73.90
44751;BME280;30477;48.224;11.470;2023-05-20T01:02:18;96052.00;;;12.20;74.23
44751;BME280;30477;48.224;11.470;2023-05-20T01:04:44;96047.63;;;12.21;74.21
44751;BME280;30477;48.224;11.470;2023-05-20T01:07:12;96046.50;;;12.23;73.98
44751;BME280;30477;48.224;11.470;2023-05-20T01:09:39;96039.97;;;12.19;74.38
44751;BME280;30477;48.224;11.470;2023-05-20T01:12:11;96035.44;;;12.21;74.31
44751;BME280;30477;48.224;11.470;2023-05-20T01:15:04;96034.66;;;12.21;74.04
44751;BME280;30477;48.224;11.470;2023-05-20T01:17:30;96033.16;;;12.18;74.17
44751;BME280;30477;48.224;11.470;2023-05-20T01:19:58;96037.53;;;12.17;74.21
44751;BME280;30477;48.224;11.470;2023-05-20T01:22:25;96029.38;;;12.12;74.64
44751;BME280;30477;48.224;11.470;2023-05-20T01:24:51;96032.25;;;12.09;74.36
44751;BME280;30477;48.224;11.470;2023-05-20T01:27:20;96032.84;;;12.03;74.64
44751;BME280;30477;48.224;11.470;2023-05-20T01:29:50;96032.84;;;12.03;75.17
44751;BME280;30477;48.224;11.470;2023-05-20T01:32:26;96025.41;;;12.00;75.09
44751;BME280;30477;48.224;11.470;2023-05-20T01:34:53;96027.31;;;11.98;75.45
44751;BME280;30477;48.224;11.470;2023-05-20T01:37:23;96025.19;;;11.93;75.12
44751;BME280;30477;48.224;11.470;2023-05-20T01:39:49;96027.84;;;12.02;75.55
44751;BME280;30477;48.224;11.470;2023-05-20T01:42:15;96028.66;;;12.02;75.62
44751;BME280;30477;48.224;11.470;2023-05-20T01:44:42;96023.78;;;11.99;75.43
44751;BME280;30477;48.224;11.470;2023-05-20T01:47:07;96015.25;;;11.89;75.60
44751;BME280;30477;48.224;11.470;2023-05-20T01:49:33;96016.88;;;11.90;75.69
44751;BME280;30477;48.224;11.470;2023-05-20T01:51:58;96017.16;;;11.87;75.88
44751;BME280;30477;48.224;11.470;2023-05-20T01:54:24;96009.78;;;11.82;76.01
44751;BME280;30477;48.224;11.470;2023-05-20T01:56:49;96013.50;;;11.79;76.16
44751;BME280;30477;48.224;11.470;2023-05-20T01:59:15;96016.94;;;11.80;76.59
44751;BME280;30477;48.224;11.470;2023-05-20T02:01:40;96012.38;;;11.82;76.54
44751;BME280;30477;48.224;11.470;2023-05-20T02:04:05;96011.59;;;11.82;76.56
44751;BME280;30477;48.224;11.470;2023-05-20T02:06:31;96016.41;;;11.76;76.62
44751;BME280;30477;48.224;11.470;2023-05-20T02:08:56;96011.09;;;11.78;76.75
44751;BME280;30477;48.224;11.470;2023-05-20T02:11:22;96017.09;;;11.78;76.79
44751;BME280;30477;48.224;11.470;2023-05-20T02:13:48;96010.84;;;11.71;76.93
44751;BME280;30477;48.224;11.470;2023-05-20T02:16:14;96008.91;;;11.73;76.91
44751;BME280;30477;48.224;11.470;2023-05-20T02:18:39;96007.00;;;11.75;77.16
44751;BME280;30477;48.224;11.470;2023-05-20T02:21:04;96008.63;;;11.76;76.93
44751;BME280;30477;48.224;11.470;2023-05-20T02:23:30;95996.94;;;11.72;77.36
44751;BME280;30477;48.224;11.470;2023-05-20T02:25:56;95996.25;;;11.70;77.13
44751;BME280;30477;48.224;11.470;2023-05-20T02:28:21;95999.75;;;11.79;77.13
44751;BME280;30477;48.224;11.470;2023-05-20T02:30:46;96014.63;;;11.77;77.38
44751;BME280;30477;48.224;11.470;2023-05-20T02:33:12;96005.66;;;11.71;77.29
44751;BME280;30477;48.224;11.470;2023-05-20T02:35:38;96012.19;;;11.75;77.35
44751;BME280;30477;48.224;11.470;2023-05-20T02:38:03;96012.19;;;11.75;77.21
44751;BME280;30477;48.224;11.470;2023-05-20T02:40:29;96017.00;;;11.70;77.18
44751;BME280;30477;48.224;11.470;2023-05-20T02:42:54;96017.66;;;11.72;77.54
44751;BME280;30477;48.224;11.470;2023-05-20T02:45:19;96019.16;;;11.75;77.46
44751;BME280;30477;48.224;11.470;2023-05-20T02:47:45;96012.19;;;11.75;77.81
44751;BME280;30477;48.224;11.470;2023-05-20T02:50:10;96020.94;;;11.74;77.72
44751;BME280;30477;48.224;11.470;2023-05-20T02:52:35;96013.59;;;11.70;77.81
44751;BME280;30477;48.224;11.470;2023-05-20T02:55:01;96018.53;;;11.63;77.56
44751;BME280;30477;48.224;11.470;2023-05-20T02:57:26;96010.41;;;11.58;78.09
44751;BME280;30477;48.224;11.470;2023-05-20T02:59:54;96019.44;;;11.54;78.06
44751;BME280;30477;48.224;11.470;2023-05-20T03:02:19;96014.56;;;11.51;78.59
44751;BME280;30477;48.224;11.470;2023-05-20T03:04:45;96006.59;;;11.52;78.55
44751;BME280;30477;48.224;11.470;2023-05-20T03:07:11;96013.31;;;11.55;78.59
44751;BME280;30477;48.224;11.470;2023-05-20T03:09:36;96017.50;;;11.56;78.36
44751;BME280;30477;48.224;11.470;2023-05-20T03:12:02;96009.06;;;11.54;78.53
44751;BME280;30477;48.224;11.470;2023-05-20T03:14:27;96010.72;;;11.55;78.84
44751;BME280;30477;48.224;11.470;2023-05-20T03:16:53;96012.84;;;11.60;78.71
44751;BME280;30477;48.224;11.470;2023-05-20T03:19:20;96016.25;;;11.60;78.59
44751;BME280;30477;48.224;11.470;2023-05-20T03:21:45;96016.41;;;11.58;78.63
44751;BME280;30477;48.224;11.470;2023-05-20T03:24:11;96012.41;;;11.64;78.81
44751;BME280;30477;48.224;11.470;2023-05-20T03:26:36;96011.44;;;11.65;78.60
44751;BME280;30477;48.224;11.470;2023-05-20T03:29:04;96012.75;;;11.69;78.88
44751;BME280;30477;48.224;11.470;2023-05-20T03:31:29;96011.97;;;11.69;78.61
44751;BME280;30477;48.224;11.470;2023-05-20T03:33:54;96011.16;;;11.68;78.69
44751;BME280;30477;48.224;11.470;2023-05-20T03:36:20;96009.00;;;11.64;78.64
44751;BME280;30477;48.224;11.470;2023-05-20T03:38:45;96010.34;;;11.68;78.69
44751;BME280;30477;48.224;11.470;2023-05-20T03:41:10;96018.41;;;11.65;78.81
44751;BME280;30477;48.224;11.470;2023-05-20T03:43:36;96024.56;;;11.64;79.21
44751;BME280;30477;48.224;11.470;2023-05-20T03:46:01;96022.09;;;11.62;78.83
44751;BME280;30477;48.224;11.470;2023-05-20T03:48:26;96021.13;;;11.63;79.22
44751;BME280;30477;48.224;11.470;2023-05-20T03:50:52;96028.63;;;11.66;79.25
44751;BME280;30477;48.224;11.470;2023-05-20T03:53:17;96022.19;;;11.70;79.30
44751;BME280;30477;48.224;11.470;2023-05-20T03:55:44;96030.31;;;11.75;79.09
44751;BME280;30477;48.224;11.470;2023-05-20T03:58:10;96017.75;;;11.81;79.12
44751;BME280;30477;48.224;11.470;2023-05-20T04:00:37;96029.06;;;11.79;79.21
44751;BME280;30477;48.224;11.470;2023-05-20T04:03:03;96029.06;;;11.79;78.97
44751;BME280;30477;48.224;11.470;2023-05-20T04:05:30;96021.47;;;11.78;78.71
44751;BME280;30477;48.224;11.470;2023-05-20T04:07:55;96017.44;;;11.66;78.78
44751;BME280;30477;48.224;11.470;2023-05-20T04:10:21;96025.00;;;11.59;78.74
44751;BME280;30477;48.224;11.470;2023-05-20T04:12:47;96017.50;;;11.56;79.26
44751;BME280;30477;48.224;11.470;2023-05-20T04:15:13;96022.03;;;11.54;79.47
44751;BME280;30477;48.224;11.470;2023-05-20T04:17:39;96017.16;;;11.51;79.28
44751;BME280;30477;48.224;11.470;2023-05-20T04:20:05;96021.56;;;11.58;79.55
44751;BME280;30477;48.224;11.470;2023-05-20T04:22:32;96008.41;;;11.52;79.50
44751;BME280;30477;48.224;11.470;2023-05-20T04:24:57;96011.97;;;11.51;79.56
44751;BME280;30477;48.224;11.470;2023-05-20T04:27:23;96009.66;;;11.48;79.91
44751;BME280;30477;48.224;11.470;2023-05-20T04:29:50;96009.66;;;11.48;79.94
44751;BME280;30477;48.224;11.470;2023-05-20T04:32:17;96008.97;;;11.46;80.09
44751;BME280;30477;48.224;11.470;2023-05-20T04:34:43;96006.69;;;11.43;79.89
44751;BME280;30477;48.224;11.470;2023-05-20T04:37:12;96005.06;;;11.42;79.97
44751;BME280;30477;48.224;11.470;2023-05-20T04:39:37;96008.19;;;11.45;79.96
44751;BME280;30477;48.224;11.470;2023-05-20T04:42:03;96008.31;;;11.44;80.04
44751;BME280;30477;48.224;11.470;2023-05-20T04:44:29;96006.97;;;11.40;80.34
44751;BME280;30477;48.224;11.470;2023-05-20T04:46:55;95997.94;;;11.44;80.37
44751;BME280;30477;48.224;11.470;2023-05-20T04:49:24;96005.06;;;11.42;80.27
44751;BME280;30477;48.224;11.470;2023-05-20T04:51:55;96002.38;;;11.33;80.61
44751;BME280;30477;48.224;11.470;2023-05-20T04:54:20;96003.34;;;11.32;80.56
44751;BME280;30477;48.224;11.470;2023-05-20T04:56:46;96009.56;;;11.40;80.86
44751;BME280;30477;48.224;11.470;2023-05-20T04:59:12;96008.91;;;11.37;80.71
44751;BME280;30477;48.224;11.470;2023-05-20T05:01:37;96008.63;;;11.41;81.04
44751;BME280;30477;48.224;11.470;2023-05-20T05:04:03;96008.03;;;11.47;80.79
44751;BME280;30477;48.224;11.470;2023-05-20T05:06:28;96001.88;;;11.48;80.71
44751;BME280;30477;48.224;11.470;2023-05-20T05:08:53;96002.47;;;11.42;80.71
44751;BME280;30477;48.224;11.470;2023-05-20T05:11:19;96000.25;;;11.47;80.78
44751;BME280;30477;48.224;11.470;2023-05-20T05:13:45;95996.69;;;11.48;80.87
44751;BME280;30477;48.224;11.470;2023-05-20T05:16:11;96001.78;;;11.40;80.67
44751;BME280;30477;48.224;11.470;2023-05-20T05:18:36;95996.91;;;11.36;81.16
44751;BME280;30477;48.224;11.470;2023-05-20T05:21:03;96000.44;;;11.35;81.25
44751;BME280;30477;48.224;11.470;2023-05-20T05:23:28;96010.06;;;11.25;80.86
44751;BME280;30477;48.224;11.470;2023-05-20T05:25:54;96001.59;;;11.23;81.05
44751;BME280;30477;48.224;11.470;2023-05-20T05:28:20;96001.03;;;11.29;81.25
44751;BME280;30477;48.224;11.470;2023-05-20T05:30:45;95995.56;;;11.32;81.25
44751;BME280;30477;48.224;11.470;2023-05-20T05:33:11;95996.53;;;11.31;81.27
44751;BME280;30477;48.224;11.470;2023-05-20T05:35:37;95998.16;;;11.32;81.51
44751;BME280;30477;48.224;11.470;2023-05-20T05:38:03;95989.28;;;11.35;81.55
44751;BME280;30477;48.224;11.470;2023-05-20T05:40:28;95989.72;;;11.30;81.57
44751;BME280;30477;48.224;11.470;2023-05-20T05:42:53;95988.47;;;11.34;81.76
44751;BME280;30477;48.224;11.470;2023-05-20T05:45:19;95993.66;;;11.34;81.50
44751;BME280;30477;48.224;11.470;2023-05-20T05:47:44;95997.59;;;11.38;81.54
44751;BME280;30477;48.224;11.470;2023-05-20T05:50:10;95998.53;;;11.37;81.64
44751;BME280;30477;48.224;11.470;2023-05-20T05:52:35;95999.19;;;11.40;81.34
44751;BME280;30477;48.224;11.470;2023-05-20T05:55:01;96005.94;;;11.32;81.60
44751;BME280;30477;48.224;11.470;2023-05-20T05:57:26;96008.22;;;11.35;81.67
44751;BME280;30477;48.224;11.470;2023-05-20T05:59:52;96009.78;;;11.46;81.68
44751;BME280;30477;48.224;11.470;2023-05-20T06:02:17;96001.69;;;11.59;81.43
44751;BME280;30477;48.224;11.470;2023-05-20T06:04:43;95996.78;;;11.56;81.18
44751;BME280;30477;48.224;11.470;2023-05-20T06:07:08;95996.50;;;11.59;81.38
44751;BME280;30477;48.224;11.470;2023-05-20T06:09:33;96006.56;;;11.62;81.29
44751;BME280;30477;48.224;11.470;2023-05-20T06:11:59;96013.88;;;11.49;81.02
44751;BME280;30477;48.224;11.470;2023-05-20T06:14:24;96008.31;;;11.44;81.14
44751;BME280;30477;48.224;11.470;2023-05-20T06:16:50;96005.44;;;11.47;80.87
44751;BME280;30477;48.224;11.470;2023-05-20T06:19:15;96011.66;;;11.54;81.27
44751;BME280;30477;48.224;11.470;2023-05-20T06:21:40;96006.69;;;11.43;81.04
44751;BME280;30477;48.224;11.470;2023-05-20T06:24:06;96001.88;;;11.48;81.30
44751;BME280;30477;48.224;11.470;2023-05-20T06:26:31;95995.44;;;11.52;81.03
44751;BME280;30477;48.224;11.470;2023-05-20T06:28:56;96007.44;;;11.53;81.10
44751;BME280;30477;48.224;11.470;2023-05-20T06:31:21;95999.97;;;11.68;81.29
44751;BME280;30477;48.224;11.470;2023-05-20T06:33:47;96000.19;;;11.74;80.58
44751;BME280;30477;48.224;11.470;2023-05-20T06:36:12;96005.38;;;11.74;80.73
44751;BME280;30477;48.224;11.470;2023-05-20T06:38:38;95988.63;;;11.69;80.66
44751;BME280;30477;48.224;11.470;2023-05-20T06:41:03;95991.06;;;11.70;80.55
44751;BME280;30477;48.224;11.470;2023-05-20T06:43:28;95991.44;;;11.75;80.83
44751;BME280;30477;48.224;11.470;2023-05-20T06:45:54;95996.81;;;11.82;80.45
44751;BME280;30477;48.224;11.470;2023-05-20T06:48:19;95996.03;;;11.82;80.25
44751;BME280;30477;48.224;11.470;2023-05-20T06:50:44;95992.41;;;11.74;79.84
44751;BME280;30477;48.224;11.470;2023-05-20T06:53:10;95992.72;;;11.89;79.97
44751;BME280;30477;48.224;11.470;2023-05-20T06:55:36;95999.59;;;11.81;79.77
44751;BME280;30477;48.224;11.470;2023-05-20T06:58:02;95996.03;;;11.82;79.82
44751;BME280;30477;48.224;11.470;2023-05-20T07:00:27;95997.34;;;11.86;79.64
44751;BME280;30477;48.224;11.470;2023-05-20T07:02:53;95986.84;;;11.87;79.60
44751;BME280;30477;48.224;11.470;2023-05-20T07:05:18;95985.75;;;11.90;79.46
44751;BME280;30477;48.224;11.470;2023-05-20T07:07:43;95981.53;;;11.89;79.24
44751;BME280;30477;48.224;11.470;2023-05-20T07:10:09;95986.16;;;12.03;79.60
44751;BME280;30477;48.224;11.470;2023-05-20T07:12:34;95977.56;;;12.21;79.13
44751;BME280;30477;48.224;11.470;2023-05-20T07:15:00;95978.63;;;12.36;79.13
44751;BME280;30477;48.224;11.470;2023-05-20T07:17:25;95974.47;;;12.43;78.46
44751;BME280;30477;48.224;11.470;2023-05-20T07:19:53;95970.56;;;12.47;78.05
44751;BME280;30477;48.224;11.470;2023-05-20T07:22:18;95972.88;;;12.50;78.22
44751;BME280;30477;48.224;11.470;2023-05-20T07:24:44;95969.31;;;12.59;77.85
44751;BME280;30477;48.224;11.470;2023-05-20T07:27:09;95967.38;;;13.47;77.42
44751;BME280;30477;48.224;11.470;2023-05-20T07:29:35;95955.00;;;14.31;75.90
44751;BME280;30477;48.224;11.470;2023-05-20T07:32:01;95963.03;;;15.25;72.04
44751;BME280;30477;48.224;11.470;2023-05-20T07:34:27;95974.13;;;15.50;69.51
44751;BME280;30477;48.224;11.470;2023-05-20T07:36:52;95970.31;;;15.83;67.18
44751;BME280;30477;48.224;11.470;2023-05-20T07:39:18;95960.63;;;16.45;66.43
44751;BME280;30477;48.224;11.470;2023-05-20T07:41:43;95960.47;;;16.76;64.26
44751;BME280;30477;48.224;11.470;2023-05-20T07:44:08;95952.22;;;17.09;62.82
44751;BME280;30477;48.224;11.470;2023-05-20T07:46:35;95956.31;;;16.67;61.81
44751;BME280;30477;48.224;11.470;2023-05-20T07:49:02;95956.84;;;16.62;62.59
44751;BME280;30477;48.224;11.470;2023-05-20T07:51:28;95949.81;;;17.44;62.39
44751;BME280;30477;48.224;11.470;2023-05-20T07:53:53;95949.06;;;18.43;61.14
44751;BME280;30477;48.224;11.470;2023-05-20T07:56:21;95955.56;;;18.54;58.10
44751;BME280;30477;48.224;11.470;2023-05-20T07:58:55;95952.25;;;18.38;56.70
44751;BME280;30477;48.224;11.470;2023-05-20T08:01:21;95957.66;;;17.08;57.95
44751;BME280;30477;48.224;11.470;2023-05-20T08:03:46;95960.09;;;16.64;59.85
44751;BME280;30477;48.224;11.470;2023-05-20T08:06:12;95946.06;;;17.53;60.55
44751;BME280;30477;48.224;11.470;2023-05-20T08:08:37;95949.75;;;17.59;58.98
44751;BME280;30477;48.224;11.470;2023-05-20T08:11:04;95952.69;;;17.13;59.93
44751;BME280;30477;48.224;11.470;2023-05-20T08:13:30;95951.38;;;16.87;60.25
44751;BME280;30477;48.224;11.470;2023-05-20T08:15:55;95945.81;;;17.27;60.56
44751;BME280;30477;48.224;11.470;2023-05-20T08:18:21;95948.50;;;17.33;59.69
44751;BME280;30477;48.224;11.470;2023-05-20T08:20:47;95939.44;;;17.94;58.53
44751;BME280;30477;48.224;11.470;2023-05-20T08:23:12;95932.16;;;18.17;57.32
44751;BME280;30477;48.224;11.470;2023-05-20T08:25:37;95937.63;;;17.73;56.78
44751;BME280;30477;48.224;11.470;2023-05-20T08:28:04;95928.69;;;17.67;57.28
44751;BME280;30477;48.224;11.470;2023-05-20T08:30:32;95925.63;;;17.42;58.47
44751;BME280;30477;48.224;11.470;2023-05-20T08:32:58;95923.09;;;18.20;58.41
44751;BME280;30477;48.224;11.470;2023-05-20T08:35:24;95926.72;;;18.82;56.91
44751;BME280;30477;48.224;11.470;2023-05-20T08:37:49;95920.06;;;18.51;56.84
44751;BME280;30477;48.224;11.470;2023-05-20T08:40:15;95921.91;;;17.73;56.68
44751;BME280;30477;48.224;11.470;2023-05-20T08:42:41;95919.25;;;17.88;57.58
44751;BME280;30477;48.224;11.470;2023-05-20T08:45:10;95917.69;;;17.93;57.93
44751;BME280;30477;48.224;11.470;2023-05-20T08:47:40;95918.38;;;18.37;57.96
44751;BME280;30477;48.224;11.470;2023-05-20T08:50:08;95913.06;;;19.06;57.79
44751;BME280;30477;48.224;11.470;2023-05-20T08:52:34;95906.38;;;19.65;56.17
44751;BME280;30477;48.224;11.470;2023-05-20T08:55:01;95916.03;;;19.45;55.34
44751;BME280;30477;48.224;11.470;2023-05-20T08:57:28;95913.59;;;19.37;55.85
44751;BME280;30477;48.224;11.470;2023-05-20T08:59:54;95911.56;;;19.45;54.98
44751;BME280;30477;48.224;11.470;2023-05-20T09:02:21;95913.34;;;18.77;55.53
44751;BME280;30477;48.224;11.470;2023-05-20T09:04:47;95911.53;;;18.36;56.55
44751;BME280;30477;48.224;11.470;2023-05-20T09:07:12;95907.00;;;18.23;56.69
44751;BME280;30477;48.224;11.470;2023-05-20T09:09:37;95913.94;;;17.81;57.04
44751;BME280;30477;48.224;11.470;2023-05-20T09:12:03;95916.19;;;17.84;57.50
44751;BME280;30477;48.224;11.470;2023-05-20T09:14:32;95916.44;;;18.17;57.18
44751;BME280;30477;48.224;11.470;2023-05-20T09:16:57;95912.81;;;18.18;56.19
44751;BME280;30477;48.224;11.470;2023-05-20T09:19:23;95920.97;;;18.02;56.82
44751;BME280;30477;48.224;11.470;2023-05-20T09:21:53;95920.91;;;17.74;57.66
44751;BME280;30477;48.224;11.470;2023-05-20T09:24:22;95917.69;;;17.78;58.31
44751;BME280;30477;48.224;11.470;2023-05-20T09:26:49;95917.72;;;18.00;57.83
44751;BME280;30477;48.224;11.470;2023-05-20T09:29:15;95914.75;;;18.38;58.18
44751;BME280;30477;48.224;11.470;2023-05-20T09:31:40;95909.38;;;18.46;57.81
44751;BME280;30477;48.224;11.470;2023-05-20T09:34:05;95912.72;;;18.33;57.50
44751;BME280;30477;48.224;11.470;2023-05-20T09:36:32;95910.25;;;17.97;57.31
44751;BME280;30477;48.224;11.470;2023-05-20T09:39:00;95909.75;;;17.65;57.48
44751;BME280;30477;48.224;11.470;2023-05-20T09:41:38;95913.44;;;17.71;58.36
44751;BME280;30477;48.224;11.470;2023-05-20T09:44:04;95914.00;;;17.66;59.53
44751;BME280;30477;48.224;11.470;2023-05-20T09:46:32;95908.50;;;17.61;59.58
44751;BME280;30477;48.224;11.470;2023-05-20T09:48:58;95903.13;;;17.69;59.50
44751;BME280;30477;48.224;11.470;2023-05-20T09:51:25;95907.75;;;17.67;59.52
44751;BME280;30477;48.224;11.470;2023-05-20T09:53:52;95901.59;;;17.75;59.62
44751;BME280;30477;48.224;11.470;2023-05-20T09:56:19;95904.91;;;17.83;59.60
44751;BME280;30477;48.224;11.470;2023-05-20T09:58:46;95894.91;;;17.72;57.80
44751;BME280;30477;48.224;11.470;2023-05-20T10:01:12;95891.59;;;17.63;58.34
44751;BME280;30477;48.224;11.470;2023-05-20T10:03:37;95886.56;;;17.83;58.68
44751;BME280;30477;48.224;11.470;2023-05-20T10:11:37;95881.81;;;18.22;57.65
44751;BME280;30477;48.224;11.470;2023-05-20T10:16:56;95875.75;;;18.56;57.37
44751;BME280;30477;48.224;11.470;2023-05-20T10:19:27;95871.34;;;18.63;57.87
44751;BME280;30477;48.224;11.470;2023-05-20T10:22:01;95867.41;;;18.88;57.17
44751;BME280;30477;48.224;11.470;2023-05-20T10:27:03;95865.03;;;18.99;56.34
44751;BME280;30477;48.224;11.470;2023-05-20T10:29:40;95870.09;;;18.94;56.92
44751;BME280;30477;48.224;11.470;2023-05-20T10:32:07;95871.50;;;18.97;55.72
44751;BME280;30477;48.224;11.470;2023-05-20T10:34:44;95868.63;;;18.85;55.65
44751;BME280;30477;48.224;11.470;2023-05-20T10:37:21;95865.53;;;18.75;55.08
44751;BME280;30477;48.224;11.470;2023-05-20T10:39:47;95862.47;;;18.64;54.47
44751;BME280;30477;48.224;11.470;2023-05-20T10:42:12;95862.41;;;18.51;55.83
44751;BME280;30477;48.224;11.470;2023-05-20T10:47:07;95847.00;;;18.76;56.26
44751;BME280;30477;48.224;11.470;2023-05-20T10:49:33;95855.75;;;18.90;56.14
44751;BME280;30477;48.224;11.470;2023-05-20T10:52:00;95846.47;;;18.94;56.30
44751;BME280;30477;48.224;11.470;2023-05-20T10:54:26;95842.22;;;18.86;55.61
44751;BME280;30477;48.224;11.470;2023-05-20T10:56:52;95845.22;;;18.83;55.66
44751;BME280;30477;48.224;11.470;2023-05-20T10:59:18;95843.25;;;18.92;55.95
44751;BME280;30477;48.224;11.470;2023-05-20T11:01:46;95833.78;;;19.04;55.40
44751;BME280;30477;48.224;11.470;2023-05-20T11:04:13;95836.44;;;19.11;55.93
44751;BME280;30477;48.224;11.470;2023-05-20T11:06:51;95828.94;;;18.95;54.90
44751;BME280;30477;48.224;11.470;2023-05-20T11:09:18;95836.00;;;18.94;55.77
44751;BME280;30477;48.224;11.470;2023-05-20T11:11:43;95823.94;;;19.13;56.31
44751;BME280;30477;48.224;11.470;2023-05-20T11:14:09;95827.13;;;19.02;55.50
44751;BME280;30477;48.224;11.470;2023-05-20T11:16:38;95820.25;;;18.94;55.64
44751;BME280;30477;48.224;11.470;2023-05-20T11:19:03;95819.84;;;19.04;56.38
44751;BME280;30477;48.224;11.470;2023-05-20T11:21:28;95821.31;;;19.13;56.94
44751;BME280;30477;48.224;11.470;2023-05-20T11:23:53;95824.75;;;19.27;56.91
44751;BME280;30477;48.224;11.470;2023-05-20T11:26:19;95822.13;;;19.34;56.84
44751;BME280;30477;48.224;11.470;2023-05-20T11:28:45;95813.25;;;19.41;57.00
44751;BME280;30477;48.224;11.470;2023-05-20T11:31:10;95812.22;;;19.62;58.03
44751;BME280;30477;48.224;11.470;2023-05-20T11:33:40;95806.97;;;19.69;57.45
44751;BME280;30477;48.224;11.470;2023-05-20T11:36:08;95814.28;;;19.80;55.91
44751;BME280;30477;48.224;11.470;2023-05-20T11:38:34;95804.59;;;19.74;53.40
44751;BME280;30477;48.224;11.470;2023-05-20T11:41:00;95812.66;;;19.79;50.29
44751;BME280;30477;48.224;11.470;2023-05-20T11:43:25;95799.94;;;19.83;49.27
44751;BME280;30477;48.224;11.470;2023-05-20T11:45:56;95812.44;;;19.94;49.68
44751;BME280;30477;48.224;11.470;2023-05-20T11:48:24;95804.53;;;20.01;48.68
44751;BME280;30477;48.224;11.470;2023-05-20T11:50:52;95812.41;;;20.01;48.30
44751;BME280;30477;48.224;11.470;2023-05-20T11:53:19;95795.03;;;20.06;48.62
44751;BME280;30477;48.224;11.470;2023-05-20T11:55:50;95789.16;;;20.11;49.30
44751;BME280;30477;48.224;11.470;2023-05-20T11:58:20;95785.91;;;20.22;50.17
44751;BME280;30477;48.224;11.470;2023-05-20T12:00:46;95786.28;;;20.33;50.88
44751;BME280;30477;48.224;11.470;2023-05-20T12:03:12;95780.63;;;20.29;49.91
44751;BME280;30477;48.224;11.470;2023-05-20T12:05:38;95786.69;;;20.23;48.42
44751;BME280;30477;48.224;11.470;2023-05-20T12:08:04;95781.03;;;20.19;49.22
44751;BME280;30477;48.224;11.470;2023-05-20T12:10:29;95781.25;;;20.18;49.16
44751;BME280;30477;48.224;11.470;2023-05-20T12:12:55;95775.00;;;20.19;51.62
44751;BME280;30477;48.224;11.470;2023-05-20T12:15:21;95772.75;;;20.22;51.86
44751;BME280;30477;48.224;11.470;2023-05-20T12:17:48;95774.97;;;20.25;52.58
44751;BME280;30477;48.224;11.470;2023-05-20T12:20:15;95766.91;;;20.20;52.37
44751;BME280;30477;48.224;11.470;2023-05-20T12:22:44;95770.94;;;20.23;52.55
44751;BME280;30477;48.224;11.470;2023-05-20T12:25:13;95792.97;;;20.28;52.20
44751;BME280;30477;48.224;11.470;2023-05-20T12:27:40;95773.69;;;20.35;52.01
44751;BME280;30477;48.224;11.470;2023-05-20T12:30:06;95768.88;;;20.32;52.34
44751;BME280;30477;48.224;11.470;2023-05-20T12:32:33;95760.97;;;20.38;52.71
44751;BME280;30477;48.224;11.470;2023-05-20T12:34:58;95763.56;;;20.45;52.04
44751;BME280;30477;48.224;11.470;2023-05-20T12:37:24;95761.53;;;20.47;51.56
44751;BME280;30477;48.224;11.470;2023-05-20T12:39:50;95763.16;;;20.48;51.58
44751;BME280;30477;48.224;11.470;2023-05-20T12:42:15;95768.44;;;20.41;52.09
44751;BME280;30477;48.224;11.470;2023-05-20T12:44:40;95775.09;;;20.44;52.33
44751;BME280;30477;48.224;11.470;2023-05-20T12:47:07;95770.84;;;20.50;51.59
44751;BME280;30477;48.224;11.470;2023-05-20T12:49:33;95777.28;;;20.54;50.52
44751;BME280;30477;48.224;11.470;2023-05-20T12:51:58;95777.88;;;20.56;50.05
44751;BME280;30477;48.224;11.470;2023-05-20T12:54:24;95777.66;;;20.57;50.58
44751;BME280;30477;48.224;11.470;2023-05-20T12:56:52;95764.13;;;20.60;50.10
44751;BME280;30477;48.224;11.470;2023-05-20T12:59:17;95763.91;;;20.68;50.80